Martin Challenger — WDB2346 — position and weather

sailwx.info

Track history (hours):
 
Tides and Currents Weather Stations Pressure Air Temp Water Temp Dewpoint Dewpoint Depression Visibility Wind Speed Wind Dir Waves Ship Positions

Martin Challenger

Owner: MARTIN OPERATING PARTNERSHIP LP, VIDOR, TX. More information available from US FCC via Universal Licensing System and Coast Guard Vessel Documentation Center.

Last reported at 2017-May-29 17:39 UTC. Time now 2017-May-30 05:34 UTC.
Position N 29°47' W 095°06'.

Length 20 m.

MMSI: 366874920.

Date/timePositionNaut miles runAvg speedWind from/ knotsBaromVisibWave heightAir tempDewpointWater temp
2017-May-29 17:39N 29°47' W 095°06'0 0.0
2017-May-29 17:30N 29°47' W 095°06'0 0.0
2017-May-29 16:52N 29°47' W 095°06'0 0.0
2017-May-29 16:28N 29°47' W 095°06'0 0.0
2017-May-29 15:58N 29°47' W 095°06'0 0.0
2017-May-29 15:12N 29°47' W 095°06'0 0.0
2017-May-29 14:56N 29°47' W 095°06'0 0.0
2017-May-29 13:58N 29°47' W 095°06'0 0.0
2017-May-29 13:30N 29°47' W 095°06'0 0.0
2017-May-29 13:01N 29°47' W 095°06'0 0.0
2017-May-29 12:30N 29°47' W 095°06'0 0.0
2017-May-29 11:52N 29°47' W 095°06'0 0.0
2017-May-29 11:28N 29°47' W 095°06'0 0.0
2017-May-29 10:55N 29°47' W 095°06'0 0.0
2017-May-29 09:49N 29°47' W 095°06'0 0.0
2017-May-29 07:32N 29°47' W 095°06'0 0.0
2017-May-29 07:23N 29°47' W 095°06'0 0.0
2017-May-29 06:58N 29°47' W 095°06'0 0.0
2017-May-28 13:59N 29°47' W 095°06'0 0.0
2017-May-28 09:11N 29°47' W 095°06'2 4.0
2017-May-28 08:47N 29°47' W 095°04'1 1.7
2017-May-28 08:28N 29°47' W 095°04'2 3.4
2017-May-28 08:00N 29°46' W 095°05'1 2.4
2017-May-28 07:29N 29°45' W 095°06'0 0.0
2017-May-27 15:51N 29°45' W 095°06'0 0.7
2017-May-27 15:30N 29°45' W 095°06'0 0.1
2017-May-27 13:51N 29°45' W 095°06'0 0.0
2017-May-27 11:43N 29°45' W 095°06'0 0.0
2017-May-27 11:31N 29°45' W 095°06'0 0.0
2017-May-27 11:01N 29°45' W 095°06'0 0.0
2017-May-27 10:08N 29°45' W 095°06'0 0.0
2017-May-27 10:01N 29°45' W 095°06'0 0.1
2017-May-27 09:30N 29°45' W 095°06'1 1.6
2017-May-27 09:00N 29°45' W 095°06'3 1.7
2017-May-27 07:29N 29°47' W 095°04'0 0.2
2017-May-27 07:00N 29°47' W 095°04'2 0.3
2017-May-27 01:16N 29°47' W 095°06'2 4.3
2017-May-27 00:54N 29°47' W 095°04'0 0.0
2017-May-27 00:30N 29°47' W 095°04'1 1.1
2017-May-26 23:52N 29°47' W 095°04'1 2.4
2017-May-26 23:28N 29°46' W 095°05'2 3.6
2017-May-26 23:00N 29°45' W 095°04'2 4.0
2017-May-26 22:30N 29°44' W 095°02'2 3.5
2017-May-26 22:01N 29°42' W 095°01'2 4.3
2017-May-26 21:31N 29°41' W 094°59'2 4.1
2017-May-26 21:01N 29°39' W 094°58'2 3.8
2017-May-26 20:31N 29°37' W 094°57'2 4.1
2017-May-26 20:01N 29°35' W 094°56'2 4.0
2017-May-26 19:31N 29°34' W 094°55'2 4.0
2017-May-26 19:00N 29°32' W 094°54'2 3.9
2017-May-26 18:24N 29°30' W 094°52'8 0.8
2017-May-26 08:40N 29°23' W 094°52'0 0.0
2017-May-26 08:30N 29°23' W 094°52'  
2017-May-21 17:34N 29°23' W 094°52'0 0.0
2017-May-21 17:28N 29°23' W 094°52'4 0.4
2017-May-21 06:50N 29°27' W 094°50'2 5.1
2017-May-21 06:24N 29°29' W 094°51'2 5.0
2017-May-21 06:00N 29°30' W 094°53'2 4.9
2017-May-21 05:30N 29°32' W 094°54'2 4.9
2017-May-21 05:01N 29°34' W 094°56'3 5.0
2017-May-21 04:31N 29°36' W 094°57'3 5.2
2017-May-21 04:01N 29°39' W 094°58'3 5.4
2017-May-21 03:30N 29°41' W 094°59'3 4.5
2017-May-21 02:55N 29°44' W 095°01'0 1.1
2017-May-21 02:30N 29°44' W 095°01'0 0.0
2017-May-21 02:01N 29°44' W 095°01'0 0.0
2017-May-21 01:31N 29°44' W 095°01'0 0.0
2017-May-21 01:01N 29°44' W 095°01'0 0.0
2017-May-21 00:29N 29°44' W 095°01'0 0.0
2017-May-21 00:00N 29°44' W 095°01'0 0.0
2017-May-20 23:30N 29°44' W 095°01'0 0.0
2017-May-20 23:00N 29°44' W 095°01'0 0.0
2017-May-20 22:30N 29°44' W 095°01'0 0.0
2017-May-20 22:00N 29°44' W 095°01'0 0.0
2017-May-20 08:30N 29°44' W 095°01'0 0.0
2017-May-20 04:11N 29°44' W 095°01'0 0.0
2017-May-20 02:56N 29°44' W 095°01'0 0.1
2017-May-20 02:17N 29°44' W 095°01'0 1.2
2017-May-20 02:00N 29°44' W 095°01'2 4.9
2017-May-20 01:30N 29°42' W 094°60'3 5.8
2017-May-20 01:00N 29°39' W 094°58'3 6.0
2017-May-20 00:31N 29°36' W 094°57'3 6.0
2017-May-20 00:01N 29°34' W 094°55'3 6.1
2017-May-19 23:28N 29°31' W 094°53'  
Track history (hours):
 
Tides and Currents Weather Stations Pressure Air Temp Water Temp Dewpoint Dewpoint Depression Visibility Wind Speed Wind Dir Waves Ship Positions

Martin Challenger

Owner: MARTIN OPERATING PARTNERSHIP LP, VIDOR, TX. More information available from US FCC via Universal Licensing System and Coast Guard Vessel Documentation Center.

Last reported at 2017-May-29 17:39 UTC. Time now 2017-May-30 05:34 UTC.
Position N 29°47' W 095°06'.

Length 20 m.

MMSI: 366874920.

Date/timePositionNaut miles runAvg speedWind from/ knotsBaromVisibWave heightAir tempDewpointWater temp
2017-May-29 17:39N 29°47' W 095°06'0 0.0
2017-May-29 17:30N 29°47' W 095°06'0 0.0
2017-May-29 16:52N 29°47' W 095°06'0 0.0
2017-May-29 16:28N 29°47' W 095°06'0 0.0
2017-May-29 15:58N 29°47' W 095°06'0 0.0
2017-May-29 15:12N 29°47' W 095°06'0 0.0
2017-May-29 14:56N 29°47' W 095°06'0 0.0
2017-May-29 13:58N 29°47' W 095°06'0 0.0
2017-May-29 13:30N 29°47' W 095°06'0 0.0
2017-May-29 13:01N 29°47' W 095°06'0 0.0
2017-May-29 12:30N 29°47' W 095°06'0 0.0
2017-May-29 11:52N 29°47' W 095°06'0 0.0
2017-May-29 11:28N 29°47' W 095°06'0 0.0
2017-May-29 10:55N 29°47' W 095°06'0 0.0
2017-May-29 09:49N 29°47' W 095°06'0 0.0
2017-May-29 07:32N 29°47' W 095°06'0 0.0
2017-May-29 07:23N 29°47' W 095°06'0 0.0
2017-May-29 06:58N 29°47' W 095°06'0 0.0
2017-May-28 13:59N 29°47' W 095°06'0 0.0
2017-May-28 09:11N 29°47' W 095°06'2 4.0
2017-May-28 08:47N 29°47' W 095°04'1 1.7
2017-May-28 08:28N 29°47' W 095°04'2 3.4
2017-May-28 08:00N 29°46' W 095°05'1 2.4
2017-May-28 07:29N 29°45' W 095°06'0 0.0
2017-May-27 15:51N 29°45' W 095°06'0 0.7
2017-May-27 15:30N 29°45' W 095°06'0 0.1
2017-May-27 13:51N 29°45' W 095°06'0 0.0
2017-May-27 11:43N 29°45' W 095°06'0 0.0
2017-May-27 11:31N 29°45' W 095°06'0 0.0
2017-May-27 11:01N 29°45' W 095°06'0 0.0
2017-May-27 10:08N 29°45' W 095°06'0 0.0
2017-May-27 10:01N 29°45' W 095°06'0 0.1
2017-May-27 09:30N 29°45' W 095°06'1 1.6
2017-May-27 09:00N 29°45' W 095°06'3 1.7
2017-May-27 07:29N 29°47' W 095°04'0 0.2
2017-May-27 07:00N 29°47' W 095°04'2 0.3
2017-May-27 01:16N 29°47' W 095°06'2 4.3
2017-May-27 00:54N 29°47' W 095°04'0 0.0
2017-May-27 00:30N 29°47' W 095°04'1 1.1
2017-May-26 23:52N 29°47' W 095°04'1 2.4
2017-May-26 23:28N 29°46' W 095°05'2 3.6
2017-May-26 23:00N 29°45' W 095°04'2 4.0
2017-May-26 22:30N 29°44' W 095°02'2 3.5
2017-May-26 22:01N 29°42' W 095°01'2 4.3
2017-May-26 21:31N 29°41' W 094°59'2 4.1
2017-May-26 21:01N 29°39' W 094°58'2 3.8
2017-May-26 20:31N 29°37' W 094°57'2 4.1
2017-May-26 20:01N 29°35' W 094°56'2 4.0
2017-May-26 19:31N 29°34' W 094°55'2 4.0
2017-May-26 19:00N 29°32' W 094°54'2 3.9
2017-May-26 18:24N 29°30' W 094°52'8 0.8
2017-May-26 08:40N 29°23' W 094°52'0 0.0
2017-May-26 08:30N 29°23' W 094°52'  
2017-May-21 17:34N 29°23' W 094°52'0 0.0
2017-May-21 17:28N 29°23' W 094°52'4 0.4
2017-May-21 06:50N 29°27' W 094°50'2 5.1
2017-May-21 06:24N 29°29' W 094°51'2 5.0
2017-May-21 06:00N 29°30' W 094°53'2 4.9
2017-May-21 05:30N 29°32' W 094°54'2 4.9
2017-May-21 05:01N 29°34' W 094°56'3 5.0
2017-May-21 04:31N 29°36' W 094°57'3 5.2
2017-May-21 04:01N 29°39' W 094°58'3 5.4
2017-May-21 03:30N 29°41' W 094°59'3 4.5
2017-May-21 02:55N 29°44' W 095°01'0 1.1
2017-May-21 02:30N 29°44' W 095°01'0 0.0
2017-May-21 02:01N 29°44' W 095°01'0 0.0
2017-May-21 01:31N 29°44' W 095°01'0 0.0
2017-May-21 01:01N 29°44' W 095°01'0 0.0
2017-May-21 00:29N 29°44' W 095°01'0 0.0
2017-May-21 00:00N 29°44' W 095°01'0 0.0
2017-May-20 23:30N 29°44' W 095°01'0 0.0
2017-May-20 23:00N 29°44' W 095°01'0 0.0
2017-May-20 22:30N 29°44' W 095°01'0 0.0
2017-May-20 22:00N 29°44' W 095°01'0 0.0
2017-May-20 08:30N 29°44' W 095°01'0 0.0
2017-May-20 04:11N 29°44' W 095°01'0 0.0
2017-May-20 02:56N 29°44' W 095°01'0 0.1
2017-May-20 02:17N 29°44' W 095°01'0 1.2
2017-May-20 02:00N 29°44' W 095°01'2 4.9
2017-May-20 01:30N 29°42' W 094°60'3 5.8
2017-May-20 01:00N 29°39' W 094°58'3 6.0
2017-May-20 00:31N 29°36' W 094°57'3 6.0
2017-May-20 00:01N 29°34' W 094°55'3 6.1
2017-May-19 23:28N 29°31' W 094°53'  

Dump ship's entire track history